Time;durP1;ratioP1;P1;durP2;ratioP2;P2;SDS_P1;SDS_P2;PMS_P1;PMS_P2;Temp;Humidity;BMP_temperature;BMP_pressure;BME280_temperature;BME280_humidity;BME280_pressure;Samples;Min_cycle;Max_cycle;Signal;HPM_P1;HPM_P2
2022/12/22 03:26:51;;;;;;;62.80;28.48;;;;;;;;;;5070549;28;20044;-63
2022/12/22 03:29:17;;;;;;;73.28;30.50;;;;;;;;;;5079080;28;20040;-62
2022/12/22 03:31:43;;;;;;;73.55;30.38;;;8.90;99.90;;;;;;5075713;28;20063;-61
2022/12/22 03:34:09;;;;;;;72.47;29.75;;;;;;;;;;5089115;28;20044;-62
2022/12/22 03:36:35;;;;;;;70.28;28.98;;;;;;;;;;5101332;28;20043;-62
2022/12/22 03:39:01;;;;;;;68.75;29.75;;;;;;;;;;5094466;28;20040;-61
2022/12/22 03:46:55;;;;;;;72.38;30.83;;;8.90;99.90;;;;;;5088238;28;20044;-62
2022/12/22 03:49:21;;;;;;;83.18;31.55;;;;;;;;;;5088189;28;20533;-62
2022/12/22 03:51:52;;;;;;;76.35;30.77;;;;;;;;;;5070038;28;20047;-62
2022/12/22 03:54:21;;;;;;;95.65;33.35;;;8.70;99.90;;;;;;5074086;28;20043;-62
2022/12/22 03:56:47;;;;;;;81.15;32.78;;;;;;;;;;5107086;28;20039;-62
2022/12/22 03:59:13;;;;;;;71.07;29.20;;;8.60;99.90;;;;;;5091936;28;20044;-62
2022/12/22 04:01:41;;;;;;;80.90;31.00;;;;;;;;;;5096484;28;20036;-61
2022/12/22 04:04:08;;;;;;;107.80;34.22;;;;;;;;;;5075366;28;20056;-63
2022/12/22 04:06:33;;;;;;;74.85;29.98;;;8.90;99.90;;;;;;5094327;28;20039;-62
2022/12/22 04:08:59;;;;;;;76.20;30.40;;;;;;;;;;5095459;28;20040;-62
2022/12/22 04:14:09;;;;;;;71.97;29.73;;;8.90;99.90;;;;;;5069501;28;20059;-61
2022/12/22 04:16:35;;;;;;;76.22;29.42;;;;;;;;;;5087571;28;20048;-62
2022/12/22 04:19:01;;;;;;;83.60;31.60;;;;;;;;;;5098637;28;20126;-61
2022/12/22 04:21:27;;;;;;;77.60;29.30;;;;;;;;;;5088346;28;20044;-62
2022/12/22 04:23:53;;;;;;;87.03;29.35;;;;;;;;;;5069149;28;20044;-62
2022/12/22 04:26:21;;;;;;;79.38;30.60;;;8.70;99.90;;;;;;5069692;28;20122;-61
2022/12/22 04:28:47;;;;;;;78.00;31.02;;;;;;;;;;5081721;28;20044;-62
2022/12/22 04:31:13;;;;;;;88.05;32.80;;;;;;;;;;5068603;28;20694;-62
2022/12/22 04:33:39;;;;;;;99.28;31.08;;;8.80;99.90;;;;;;5074064;28;20143;-61
2022/12/22 04:36:05;;;;;;;98.28;32.33;;;8.90;99.90;;;;;;5095924;28;20154;-61
2022/12/22 04:38:31;;;;;;;73.45;28.48;;;;;;;;;;5068841;28;20401;-62
2022/12/22 04:40:57;;;;;;;94.32;30.52;;;;;;;;;;5068900;28;20054;-62
2022/12/22 04:43:23;;;;;;;92.45;32.38;;;;;;;;;;5100990;28;20043;-62
2022/12/22 04:45:53;;;;;;;103.15;32.97;;;;;;;;;;5094636;28;20457;-61
2022/12/22 04:48:19;;;;;;;87.03;30.35;;;;;;;;;;5074406;28;20136;-63
2022/12/22 04:50:45;;;;;;;79.20;29.13;;;;;;;;;;5085729;28;20050;-61
2022/12/22 04:53:11;;;;;;;79.38;29.25;;;;;;;;;;5086593;28;20051;-62
2022/12/22 04:55:37;;;;;;;78.53;28.75;;;;;;;;;;5104391;28;20046;-62
2022/12/22 04:58:03;;;;;;;78.40;30.10;;;;;;;;;;5098878;28;20040;-62
2022/12/22 05:00:29;;;;;;;79.55;28.75;;;;;;;;;;5087681;28;20058;-63
2022/12/22 05:02:54;;;;;;;78.38;27.48;;;8.80;99.90;;;;;;5088524;28;20478;-61
2022/12/22 05:05:20;;;;;;;84.47;28.23;;;;;;;;;;5068666;28;20051;-62
2022/12/22 05:07:46;;;;;;;79.18;29.70;;;;;;;;;;5068595;28;20130;-62
2022/12/22 05:10:12;;;;;;;85.20;29.85;;;;;;;;;;5068373;28;20504;-62
2022/12/22 05:12:53;;;;;;;84.72;28.42;;;;;;;;;;5087193;28;20066;-62
2022/12/22 05:15:19;;;;;;;103.57;33.30;;;;;;;;;;5069285;28;20044;-62
2022/12/22 05:17:45;;;;;;;86.45;29.25;;;8.90;99.90;;;;;;5087853;28;20263;-61
2022/12/22 05:20:11;;;;;;;81.18;28.40;;;;;;;;;;5087310;28;20119;-62
2022/12/22 05:22:37;;;;;;;101.57;31.45;;;;;;;;;;5069066;28;20097;-62
2022/12/22 05:25:03;;;;;;;89.50;30.75;;;;;;;;;;5086587;28;20032;-62
2022/12/22 05:27:29;;;;;;;96.40;32.28;;;;;;;;;;5068019;28;20097;-62
2022/12/22 05:29:55;;;;;;;86.05;30.90;;;8.90;99.90;;;;;;5069500;28;20059;-61
2022/12/22 05:32:20;;;;;;;95.05;32.53;;;8.80;99.90;;;;;;5087316;28;20036;-62
2022/12/22 05:34:46;;;;;;;71.22;26.90;;;8.90;99.90;;;;;;5087835;28;20568;-61
2022/12/22 05:37:12;;;;;;;62.35;25.45;;;;;;;;;;5086959;28;20409;-61
2022/12/22 05:39:38;;;;;;;71.80;27.15;;;;;;;;;;5068914;28;20075;-62
2022/12/22 05:42:04;;;;;;;79.60;27.13;;;;;;;;;;5087993;28;20119;-62
2022/12/22 05:44:30;;;;;;;72.55;27.55;;;;;;;;;;5069239;28;20127;-62
2022/12/22 05:46:55;;;;;;;77.80;27.75;;;8.90;99.90;;;;;;5069003;28;20118;-61
2022/12/22 05:49:21;;;;;;;67.88;25.75;;;;;;;;;;5051689;28;20028;-61
2022/12/22 05:51:48;;;;;;;75.13;26.52;;;;;;;;;;5069690;28;20098;-61
2022/12/22 05:54:14;;;;;;;64.25;23.90;;;;;;;;;;5087267;28;20044;-63
2022/12/22 05:56:40;;;;;;;61.30;24.58;;;;;;;;;;5087532;28;20039;-62
2022/12/22 05:59:06;;;;;;;60.35;24.10;;;8.70;99.90;;;;;;5086534;28;20093;-61
2022/12/22 06:01:31;;;;;;;69.15;26.13;;;8.50;99.90;;;;;;5086778;28;20042;-62
2022/12/22 06:03:57;;;;;;;59.65;24.27;;;;;;;;;;5099710;28;20078;-61
2022/12/22 06:06:23;;;;;;;52.60;22.50;;;;;;;;;;5092422;28;20043;-62
2022/12/22 06:08:49;;;;;;;53.42;21.95;;;;;;;;;;5095737;28;20406;-62
2022/12/22 06:11:17;;;;;;;54.10;23.30;;;;;;;;;;5068505;28;20044;-62
2022/12/22 06:13:43;;;;;;;53.40;23.05;;;8.50;99.90;;;;;;5068761;28;20441;-62
2022/12/22 06:16:09;;;;;;;50.50;21.45;;;;;;;;;;5101023;28;20489;-62
2022/12/22 06:18:35;;;;;;;55.95;24.13;;;;;;;;;;5086852;28;20051;-62
2022/12/22 06:21:01;;;;;;;47.47;22.27;;;;;;;;;;5069711;28;20394;-62
2022/12/22 06:23:26;;;;;;;50.53;22.02;;;8.30;99.90;;;;;;5089587;28;20076;-62
2022/12/22 06:25:56;;;;;;;50.10;22.33;;;8.30;99.90;;;;;;5089721;28;20118;-61
2022/12/22 06:28:22;;;;;;;40.63;20.85;;;8.00;99.90;;;;;;5071288;28;20079;-61
2022/12/22 06:30:48;;;;;;;40.45;20.52;;;;;;;;;;5081581;28;20101;-62
2022/12/22 06:33:14;;;;;;;40.85;18.40;;;;;;;;;;5058753;28;20809;-62
2022/12/22 06:35:40;;;;;;;46.80;20.02;;;;;;;;;;5081895;28;20046;-62
2022/12/22 06:38:06;;;;;;;41.22;18.73;;;;;;;;;;5090947;28;20485;-62
2022/12/22 06:40:32;;;;;;;43.03;19.42;;;7.60;99.90;;;;;;5107169;28;20050;-62
2022/12/22 06:43:10;;;;;;;45.38;19.50;;;;;;;;;;5106956;28;20488;-60
2022/12/22 06:45:40;;;;;;;39.40;18.60;;;;;;;;;;5090185;28;20379;-62
2022/12/22 06:48:07;;;;;;;41.15;19.40;;;;;;;;;;5106358;28;20531;-62
2022/12/22 06:50:33;;;;;;;36.53;18.70;;;7.40;99.90;;;;;;5104623;28;20040;-61
2022/12/22 06:53:00;;;;;;;39.53;17.73;;;;;;;;;;5106777;28;20050;-62
2022/12/22 06:55:26;;;;;;;31.27;15.60;;;;;;;;;;5086408;28;20056;-62
2022/12/22 06:57:52;;;;;;;31.85;15.32;;;;;;;;;;5073484;28;20051;-62
2022/12/22 07:00:18;;;;;;;30.17;15.60;;;7.10;99.90;;;;;;5088664;28;20047;-63
2022/12/22 07:02:43;;;;;;;37.33;16.65;;;7.10;99.90;;;;;;5084675;28;20379;-62
2022/12/22 07:05:09;;;;;;;30.88;15.85;;;;;;;;;;5069428;28;20047;-63
2022/12/22 07:07:35;;;;;;;40.50;16.85;;;;;;;;;;5080736;28;20040;-63
2022/12/22 07:10:01;;;;;;;47.60;20.50;;;;;;;;;;5071781;28;20327;-63
2022/12/22 07:12:27;;;;;;;48.70;18.38;;;;;;;;;;5071613;28;20162;-61
2022/12/22 07:14:53;;;;;;;38.45;17.65;;;7.10;99.90;;;;;;5094594;28;20119;-62
2022/12/22 07:17:18;;;;;;;55.35;17.50;;;7.20;99.90;;;;;;5097717;28;20033;-62
2022/12/22 07:19:44;;;;;;;59.38;17.67;;;7.30;99.90;;;;;;5075394;28;20443;-62
2022/12/22 07:22:10;;;;;;;41.47;17.60;;;;;;;;;;5105629;28;20043;-61
2022/12/22 07:24:36;;;;;;;68.38;19.08;;;;;;;;;;5087247;28;20314;-62
2022/12/22 07:27:02;;;;;;;66.82;19.13;;;;;;;;;;5105676;28;20058;-63
2022/12/22 07:29:28;;;;;;;47.13;18.15;;;;;;;;;;5103068;28;20039;-64
2022/12/22 07:31:53;;;;;;;58.42;19.30;;;7.20;99.90;;;;;;5085116;28;20469;-64
2022/12/22 07:34:19;;;;;;;62.30;18.33;;;;;;;;;;5105204;28;20068;-62
2022/12/22 07:36:45;;;;;;;54.50;17.15;;;;;;;;;;5104484;28;20406;-61
2022/12/22 07:39:12;;;;;;;50.17;15.38;;;;;;;;;;5106268;28;20043;-63
2022/12/22 07:44:23;;;;;;;49.63;14.77;;;;;;;;;;5105028;28;20348;-62
2022/12/22 07:46:49;;;;;;;57.75;16.23;;;7.40;99.90;;;;;;5102380;28;20542;-62
2022/12/22 07:51:59;;;;;;;87.03;17.13;;;7.20;99.90;;;;;;5099992;28;20040;-63
2022/12/22 07:54:25;;;;;;;80.63;14.98;;;;;;;;;;5074329;28;20435;-64
2022/12/22 07:56:51;;;;;;;38.47;12.77;;;;;;;;;;5098530;28;20051;-63
2022/12/22 07:59:17;;;;;;;48.47;11.68;;;;;;;;;;5084689;28;20413;-63
2022/12/22 08:01:44;;;;;;;37.10;11.15;;;;;;;;;;5080915;28;20486;-63
2022/12/22 08:04:10;;;;;;;40.92;11.48;;;7.20;99.90;;;;;;5075757;28;20043;-63
2022/12/22 08:06:37;;;;;;;37.33;11.75;;;;;;;;;;5086569;28;20066;-63
2022/12/22 08:09:03;;;;;;;45.28;11.82;;;;;;;;;;5089583;28;20039;-64
2022/12/22 08:11:29;;;;;;;64.43;14.18;;;;;;;;;;5081205;28;20039;-64
2022/12/22 08:13:55;;;;;;;49.90;12.63;;;7.00;99.90;;;;;;5106312;28;20497;-63
2022/12/22 08:16:21;;;;;;;33.30;10.80;;;;;;;;;;5096947;28;20047;-63
2022/12/22 08:18:48;;;;;;;34.10;11.57;;;;;;;;;;5098098;28;20043;-62
2022/12/22 08:21:14;;;;;;;34.63;11.60;;;;;;;;;;5090681;28;20040;-63
2022/12/22 08:23:39;;;;;;;34.10;11.50;;;7.00;99.90;;;;;;5074527;28;20044;-63
2022/12/22 08:26:09;;;;;;;50.17;11.40;;;;;;;;;;5087562;28;20088;-63
2022/12/22 08:28:37;;;;;;;75.50;12.10;;;;;;;;;;5082072;28;20088;-63
2022/12/22 08:31:03;;;;;;;34.78;10.20;;;;;;;;;;5102917;28;20047;-63
2022/12/22 08:33:29;;;;;;;56.05;10.63;;;;;;;;;;5085845;28;20063;-64
2022/12/22 08:35:57;;;;;;;57.58;11.60;;;;;;;;;;5071586;28;20043;-63
2022/12/22 08:38:22;;;;;;;45.10;10.45;;;;;;;;;;5097856;28;20047;-62
2022/12/22 08:40:49;;;;;;;29.98;9.13;;;;;;;;;;5095312;28;20152;-63
2022/12/22 08:43:15;;;;;;;51.78;10.60;;;;;;;;;;5098052;28;20565;-60
2022/12/22 08:45:41;;;;;;;35.05;9.20;;;;;;;;;;5082666;28;20048;-63
2022/12/22 08:48:09;;;;;;;51.33;10.00;;;;;;;;;;5103158;28;20047;-61
2022/12/22 08:50:35;;;;;;;73.55;10.52;;;;;;;;;;5084394;28;20101;-61
2022/12/22 08:53:05;;;;;;;45.10;9.93;;;;;;;;;;5099976;28;20077;-62
2022/12/22 08:55:32;;;;;;;66.45;11.18;;;;;;;;;;5103935;28;20039;-61
2022/12/22 08:57:58;;;;;;;56.83;10.90;;;;;;;;;;5103498;28;20047;-62
2022/12/22 09:00:24;;;;;;;41.60;10.18;;;;;;;;;;5104922;28;20042;-60
2022/12/22 09:02:50;;;;;;;46.55;10.07;;;;;;;;;;5081547;28;20047;-59
2022/12/22 09:05:16;;;;;;;49.08;10.27;;;;;;;;;;5087362;28;20036;-61
2022/12/22 09:07:42;;;;;;;35.63;9.88;;;;;;;;;;5092435;28;20485;-60
2022/12/22 09:10:09;;;;;;;28.50;8.77;;;;;;;;;;5084964;28;20039;-62
2022/12/22 09:12:35;;;;;;;56.58;11.50;;;;;;;;;;5083159;28;20052;-61
2022/12/22 09:15:01;;;;;;;48.53;10.35;;;;;;;;;;5086802;28;20181;-59
2022/12/22 09:17:27;;;;;;;32.65;9.05;;;;;;;;;;5086087;28;20560;-59
2022/12/22 09:19:53;;;;;;;31.85;8.30;;;;;;;;;;5077506;28;20043;-60
2022/12/22 09:22:19;;;;;;;32.08;9.18;;;;;;;;;;5074876;28;20104;-62
2022/12/22 09:24:45;;;;;;;35.80;9.50;;;;;;;;;;5097521;28;20040;-62
2022/12/22 09:27:11;;;;;;;35.65;9.95;;;;;;;;;;5073106;28;20039;-63
2022/12/22 09:29:38;;;;;;;31.95;9.18;;;;;;;;;;5093726;28;20469;-64
2022/12/22 09:32:04;;;;;;;32.00;8.75;;;;;;;;;;5073722;28;20048;-60
2022/12/22 09:34:30;;;;;;;32.92;8.60;;;;;;;;;;5095859;28;20168;-62
2022/12/22 09:36:56;;;;;;;32.53;8.43;;;;;;;;;;5095568;28;20127;-63
2022/12/22 09:39:23;;;;;;;25.30;8.77;;;;;;;;;;5100741;28;20051;-59
2022/12/22 09:41:50;;;;;;;36.33;9.32;;;;;;;;;;5092646;28;20051;-63
2022/12/22 09:44:16;;;;;;;24.05;8.43;;;;;;;;;;5086344;28;20051;-62
2022/12/22 09:46:42;;;;;;;29.58;8.40;;;7.10;99.90;;;;;;5069027;28;20036;-62
2022/12/22 09:49:13;;;;;;;31.40;8.77;;;;;;;;;;5070983;28;20040;-63
2022/12/22 09:51:42;;;;;;;27.30;8.55;;;6.90;99.90;;;;;;5073135;28;20497;-62
2022/12/22 09:54:10;;;;;;;24.60;8.25;;;;;;;;;;5087858;28;20044;-62
2022/12/22 09:56:36;;;;;;;24.75;9.02;;;;;;;;;;5100871;28;20039;-62
2022/12/22 09:59:02;;;;;;;25.02;9.82;;;;;;;;;;5105601;28;20071;-64
2022/12/22 10:01:41;;;;;;;25.08;9.35;;;;;;;;;;5086608;28;20039;-64
2022/12/22 10:04:37;;;;;;;23.27;9.10;;;7.10;99.90;;;;;;5090612;28;20090;-62
2022/12/22 10:07:03;;;;;;;;;;;;;;;;;;5075951;28;20379;-63
2022/12/22 10:09:30;;;;;;;19.63;8.82;;;;;;;;;;5085607;28;19978;-64
2022/12/22 10:11:58;;;;;;;23.80;9.43;;;;;;;;;;5079620;28;20047;-62
2022/12/22 10:14:26;;;;;;;22.45;9.88;;;;;;;;;;5089142;28;20055;-64
2022/12/22 10:17:28;;;;;;;26.45;10.43;;;7.40;99.90;;;;;;5084948;28;20035;-63
2022/12/22 10:20:07;;;;;;;21.48;9.27;;;;;;;;;;5099904;28;20498;-65
2022/12/22 10:22:35;;;;;;;26.40;9.90;;;;;;;;;;5087608;28;20378;-65
2022/12/22 10:25:02;;;;;;;24.42;9.07;;;;;;;;;;5094926;28;20036;-63
2022/12/22 10:27:30;;;;;;;19.25;8.35;;;;;;;;;;5083484;28;20051;-64
2022/12/22 10:30:16;;;;;;;14.38;7.40;;;;;;;;;;5080609;28;20052;-64
2022/12/22 10:32:42;;;;;;;15.52;7.53;;;;;;;;;;5104452;28;20058;-63
2022/12/22 10:35:08;;;;;;;17.17;8.10;;;8.70;99.90;;;;;;5104700;28;20043;-65
2022/12/22 10:37:36;;;;;;;13.95;7.50;;;;;;;;;;5105974;28;20500;-65
2022/12/22 10:40:16;;;;;;;15.65;7.22;;;8.90;99.90;;;;;;5105560;28;20028;-65
2022/12/22 10:42:51;;;;;;;12.88;7.13;;;8.90;99.90;;;;;;5087284;28;20453;-65
2022/12/22 10:45:22;;;;;;;15.05;7.13;;;9.10;99.90;;;;;;5087088;28;20062;-62
2022/12/22 10:47:49;;;;;;;15.65;7.18;;;;;;;;;;5107567;28;20031;-63
2022/12/22 10:50:16;;;;;;;13.55;6.80;;;9.80;99.90;;;;;;5105618;28;20451;-64
2022/12/22 10:52:48;;;;;;;12.57;6.82;;;;;;;;;;5095863;28;20047;-64
2022/12/22 10:55:27;;;;;;;16.10;6.32;;;;;;;;;;5104941;28;20048;-64
2022/12/22 10:58:12;;;;;;;17.75;6.47;;;;;;;;;;5080326;28;20105;-64
2022/12/22 11:00:40;;;;;;;16.52;5.95;;;;;;;;;;5082098;28;20443;-64
2022/12/22 11:03:10;;;;;;;14.70;6.80;;;9.40;99.90;;;;;;5101148;28;20040;-64
2022/12/22 11:05:36;;;;;;;11.43;5.93;;;;;;;;;;5088353;28;20051;-65
2022/12/22 11:08:17;;;;;;;11.60;6.10;;;;;;;;;;5071992;28;20071;-65
2022/12/22 11:10:48;;;;;;;14.20;6.20;;;9.40;99.90;;;;;;5092816;28;20043;-64
2022/12/22 11:13:41;;;;;;;17.52;6.57;;;9.20;99.90;;;;;;5079890;28;20521;-65
2022/12/22 11:16:23;;;;;;;11.18;6.15;;;9.50;99.90;;;;;;5099786;28;20051;-67
2022/12/22 11:18:58;;;;;;;13.63;6.63;;;;;;;;;;5084546;28;20089;-65
2022/12/22 11:21:41;;;;;;;11.77;6.20;;;;;;;;;;5081337;28;20074;-64
2022/12/22 11:24:07;;;;;;;15.07;6.43;;;;;;;;;;5078491;28;20079;-64
2022/12/22 11:26:45;;;;;;;10.77;6.38;;;;;;;;;;5085723;28;20553;-65
2022/12/22 11:29:14;;;;;;;12.55;5.68;;;;;;;;;;5088204;28;20035;-64
2022/12/22 11:31:52;;;;;;;11.15;6.60;;;;;;;;;;5102470;28;20051;-66
2022/12/22 11:34:33;;;;;;;12.18;5.78;;;;;;;;;;5084574;28;20040;-65
2022/12/22 11:37:18;;;;;;;12.13;5.47;;;;;;;;;;5055274;28;20127;-65
2022/12/22 11:39:49;;;;;;;14.93;6.28;;;;;;;;;;5083901;28;20061;-64
2022/12/22 11:42:26;;;;;;;11.55;5.15;;;9.10;99.90;;;;;;5102804;28;20487;-66
2022/12/22 11:44:57;;;;;;;11.82;5.60;;;;;;;;;;5100233;28;20411;-64
2022/12/22 11:47:46;;;;;;;13.07;4.68;;;9.20;99.90;;;;;;5079326;28;20185;-63
2022/12/22 11:50:28;;;;;;;8.65;4.63;;;;;;;;;;5085455;28;20125;-64
2022/12/22 11:53:01;;;;;;;15.60;5.15;;;;;;;;;;5079288;28;20094;-63
2022/12/22 11:55:36;;;;;;;14.18;4.97;;;;;;;;;;5078174;28;20055;-64
2022/12/22 11:58:20;;;;;;;13.90;5.47;;;;;;;;;;5102435;28;20092;-64
2022/12/22 12:01:17;;;;;;;12.50;4.70;;;9.40;99.90;;;;;;5055838;28;20075;-63
2022/12/22 12:04:09;;;;;;;10.63;4.20;;;;;;;;;;5075479;28;20055;-62
2022/12/22 12:06:51;;;;;;;13.15;4.65;;;;;;;;;;5097871;28;20109;-64
2022/12/22 12:09:35;;;;;;;12.70;4.75;;;;;;;;;;5083280;28;20040;-64
2022/12/22 12:12:11;;;;;;;12.38;5.22;;;;;;;;;;5087108;28;20425;-64
2022/12/22 12:14:49;;;;;;;13.35;4.90;;;9.90;99.90;;;;;;5103142;28;20049;-64
2022/12/22 12:17:52;;;;;;;10.27;4.50;;;9.70;99.90;;;;;;5085947;28;20515;-63
2022/12/22 12:20:23;;;;;;;11.80;5.07;;;;;;;;;;5100439;28;20072;-63
2022/12/22 12:23:08;;;;;;;13.15;4.85;;;;;;;;;;5082740;28;20040;-63
2022/12/22 12:25:38;;;;;;;10.60;4.85;;;;;;;;;;5103361;28;20039;-63
2022/12/22 12:28:15;;;;;;;12.57;4.38;;;;;;;;;;5102160;28;20485;-63
2022/12/22 12:30:56;;;;;;;15.05;5.10;;;10.00;99.90;;;;;;5099567;28;20047;-65
2022/12/22 12:33:41;;;;;;;10.50;4.35;;;10.20;99.90;;;;;;5101753;28;20039;-64
2022/12/22 12:36:16;;;;;;;15.43;4.50;;;9.90;99.90;;;;;;5085320;28;20073;-65
2022/12/22 12:38:53;;;;;;;19.50;4.60;;;9.80;99.90;;;;;;5100831;28;20071;-62
2022/12/22 12:41:44;;;;;;;15.57;4.35;;;9.80;99.90;;;;;;5075256;28;20080;-64
2022/12/22 12:44:16;;;;;;;12.13;4.28;;;9.90;99.90;;;;;;5091782;28;20051;-64
2022/12/22 12:46:54;;;;;;;11.70;4.05;;;9.90;99.90;;;;;;5087594;28;20050;-65
2022/12/22 12:49:34;;;;;;;15.18;4.00;;;10.10;99.90;;;;;;5101511;28;20044;-63
2022/12/22 12:52:01;;;;;;;12.73;4.03;;;;;;;;;;5082000;28;20044;-63
2022/12/22 12:54:35;;;;;;;18.15;4.43;;;10.00;99.90;;;;;;5079945;28;20055;-64
2022/12/22 12:57:07;;;;;;;11.02;3.63;;;;;;;;;;5072821;28;20501;-63
2022/12/22 12:59:39;;;;;;;12.70;3.67;;;;;;;;;;5068615;28;20085;-63
2022/12/22 13:02:35;;;;;;;9.57;3.65;;;10.30;99.90;;;;;;5069225;28;20436;-64
2022/12/22 13:05:10;;;;;;;15.23;3.95;;;;;;;;;;5069330;28;20501;-63
2022/12/22 13:07:55;;;;;;;8.48;3.30;;;;;;;;;;5088344;28;20397;-63
2022/12/22 13:10:23;;;;;;;8.17;3.47;;;10.30;99.90;;;;;;5079766;28;20048;-64
2022/12/22 13:12:52;;;;;;;8.90;4.47;;;10.40;99.90;;;;;;5082921;28;20055;-64
2022/12/22 13:15:28;;;;;;;16.13;3.53;;;10.40;99.90;;;;;;5068460;28;20051;-65
2022/12/22 13:17:54;;;;;;;19.25;3.50;;;;;;;;;;5068573;28;20079;-64
2022/12/22 13:20:30;;;;;;;12.45;3.60;;;10.30;99.90;;;;;;5068676;28;20040;-65
2022/12/22 13:22:58;;;;;;;10.00;3.00;;;10.30;99.90;;;;;;5068785;28;20055;-64
2022/12/22 13:25:29;;;;;;;15.25;3.80;;;10.10;99.90;;;;;;5086874;28;20040;-64
2022/12/22 13:27:57;;;;;;;9.82;3.08;;;;;;;;;;5082849;28;20052;-64
2022/12/22 13:30:23;;;;;;;18.35;4.40;;;;;;;;;;5068541;28;20502;-65
2022/12/22 13:32:49;;;;;;;10.05;3.15;;;;;;;;;;5071927;28;20091;-64
2022/12/22 13:35:18;;;;;;;9.93;3.88;;;;;;;;;;5084454;28;20041;-64
2022/12/22 13:37:47;;;;;;;14.05;3.55;;;10.10;99.90;;;;;;5096136;28;20035;-63
2022/12/22 13:40:14;;;;;;;12.70;4.25;;;;;;;;;;5093044;28;20461;-63
2022/12/22 13:42:52;;;;;;;8.65;2.95;;;9.90;99.90;;;;;;5072272;28;20134;-64
2022/12/22 13:45:21;;;;;;;9.05;3.15;;;9.80;99.90;;;;;;5075883;28;20039;-64
2022/12/22 13:47:48;;;;;;;11.38;3.47;;;9.90;99.90;;;;;;5093899;28;20440;-62
2022/12/22 13:50:18;;;;;;;9.02;3.03;;;;;;;;;;5075318;28;20474;-63
2022/12/22 13:52:44;;;;;;;8.50;2.88;;;9.90;99.90;;;;;;5075130;28;20120;-63
2022/12/22 13:55:13;;;;;;;6.60;2.88;;;;;;;;;;5092670;28;20039;-62
2022/12/22 13:57:39;;;;;;;12.50;3.28;;;9.70;99.90;;;;;;5098238;28;20077;-64
2022/12/22 14:00:05;;;;;;;13.15;4.25;;;9.70;99.90;;;;;;5077708;28;20555;-62
2022/12/22 14:02:31;;;;;;;11.18;3.72;;;9.70;99.90;;;;;;5068705;28;20040;-63
2022/12/22 14:05:05;;;;;;;8.68;3.20;;;;;;;;;;5097425;28;20081;-61
2022/12/22 14:07:31;;;;;;;12.23;3.67;;;;;;;;;;5073543;28;20081;-64
2022/12/22 14:09:57;;;;;;;11.40;3.95;;;9.70;99.90;;;;;;5072199;28;20432;-64
2022/12/22 14:12:26;;;;;;;9.98;3.55;;;9.60;99.90;;;;;;5071710;28;20070;-63
2022/12/22 14:14:54;;;;;;;12.35;4.45;;;;;;;;;;5075067;28;20436;-60
2022/12/22 14:17:34;;;;;;;11.13;3.63;;;;;;;;;;5080147;28;20047;-63
2022/12/22 14:20:08;;;;;;;10.60;3.30;;;9.50;99.90;;;;;;5091073;28;20035;-64
2022/12/22 14:22:43;;;;;;;8.57;3.27;;;9.50;99.90;;;;;;5077486;28;20450;-63
2022/12/22 14:25:13;;;;;;;12.10;3.75;;;;;;;;;;5084880;28;20043;-65
2022/12/22 14:27:53;;;;;;;10.05;3.25;;;9.60;99.90;;;;;;5101168;28;20122;-64
2022/12/22 14:30:23;;;;;;;13.02;3.13;;;9.40;99.90;;;;;;5085475;28;20793;-64
2022/12/22 14:32:50;;;;;;;10.75;2.90;;;;;;;;;;5107537;28;20046;-64
2022/12/22 14:35:21;;;;;;;15.00;4.25;;;;;;;;;;5085709;28;20047;-64
2022/12/22 14:37:52;;;;;;;9.75;2.90;;;;;;;;;;5106814;28;20088;-63
2022/12/22 14:40:31;;;;;;;14.73;3.95;;;;;;;;;;5083596;28;20046;-62
2022/12/22 14:42:58;;;;;;;12.18;3.45;;;;;;;;;;5092921;27;20040;-63
2022/12/22 14:45:24;;;;;;;9.43;3.50;;;;;;;;;;5087084;28;20477;-62
2022/12/22 14:47:51;;;;;;;10.88;3.58;;;;;;;;;;5072163;28;20490;-64
2022/12/22 14:50:17;;;;;;;12.80;3.85;;;;;;;;;;5089997;28;20044;-63
2022/12/22 14:52:50;;;;;;;9.40;2.97;;;;;;;;;;5100155;28;20121;-63
2022/12/22 14:55:26;;;;;;;11.32;2.75;;;;;;;;;;5084689;28;20052;-63
2022/12/22 14:57:52;;;;;;;;;;;;;;;;;;5070035;28;20050;-63
2022/12/22 15:00:23;;;;;;;8.38;3.40;;;8.90;99.90;;;;;;5089541;28;19967;-62
2022/12/22 15:02:53;;;;;;;10.85;3.33;;;;;;;;;;5095292;28;20036;-63
2022/12/22 15:05:28;;;;;;;7.50;2.88;;;;;;;;;;5072407;28;20626;-63
2022/12/22 15:07:56;;;;;;;12.75;3.25;;;;;;;;;;5097486;28;20032;-61
2022/12/22 15:10:24;;;;;;;6.88;3.15;;;8.50;99.90;;;;;;5070687;28;20048;-63
2022/12/22 15:12:57;;;;;;;11.95;3.97;;;;;;;;;;5089168;28;20047;-63
2022/12/22 15:15:23;;;;;;;8.27;3.65;;;;;;;;;;5078678;28;20414;-63
2022/12/22 15:17:50;;;;;;;11.23;3.92;;;;;;;;;;5071928;28;20486;-62
2022/12/22 15:20:20;;;;;;;11.82;4.32;;;;;;;;;;5093036;28;20040;-64
2022/12/22 15:22:46;;;;;;;9.88;4.88;;;;;;;;;;5095390;28;20048;-63
2022/12/22 15:25:13;;;;;;;11.20;5.13;;;;;;;;;;5079728;28;20040;-63
2022/12/22 15:27:39;;;;;;;13.35;6.03;;;8.40;99.90;;;;;;5069936;28;20055;-63
2022/12/22 15:30:05;;;;;;;19.42;7.50;;;;;;;;;;5092956;28;20440;-63
2022/12/22 15:32:31;;;;;;;11.70;9.25;;;;;;;;;;5094940;28;20395;-62
2022/12/22 15:34:57;;;;;;;23.80;11.95;;;8.30;99.90;;;;;;5095305;28;20031;-62
2022/12/22 15:37:23;;;;;;;14.88;9.52;;;;;;;;;;5088510;28;20039;-63
2022/12/22 15:39:49;;;;;;;16.08;9.57;;;;;;;;;;5088449;28;20213;-63
2022/12/22 15:42:15;;;;;;;20.58;9.00;;;;;;;;;;5083289;28;20127;-63
2022/12/22 15:44:41;;;;;;;13.45;9.75;;;;;;;;;;5088259;28;20581;-62
2022/12/22 15:47:09;;;;;;;22.75;10.55;;;;;;;;;;5084136;28;20498;-63
2022/12/22 15:49:35;;;;;;;21.50;11.40;;;;;;;;;;5088476;28;20175;-63
2022/12/22 15:52:02;;;;;;;18.23;9.73;;;;;;;;;;5087794;28;20035;-64
2022/12/22 15:54:29;;;;;;;20.95;10.57;;;;;;;;;;5087911;28;20406;-63
2022/12/22 15:56:56;;;;;;;21.20;11.43;;;;;;;;;;5098435;28;20043;-62
2022/12/22 15:59:26;;;;;;;21.42;11.10;;;;;;;;;;5084319;28;20056;-63
2022/12/22 16:01:53;;;;;;;22.60;11.73;;;;;;;;;;5102933;28;20408;-62
2022/12/22 16:04:21;;;;;;;24.13;12.88;;;;;;;;;;5074785;28;20043;-63
2022/12/22 16:06:47;;;;;;;21.27;12.60;;;;;;;;;;5080485;28;20051;-63
2022/12/22 16:09:19;;;;;;;17.92;13.05;;;;;;;;;;5078291;28;20040;-63
2022/12/22 16:11:45;;;;;;;21.60;13.55;;;8.00;99.90;;;;;;5095151;28;20059;-63
2022/12/22 16:14:12;;;;;;;21.85;14.75;;;;;;;;;;5100917;28;20031;-63
2022/12/22 16:16:39;;;;;;;27.73;16.50;;;8.20;99.90;;;;;;5069640;28;20585;-62
2022/12/22 16:19:05;;;;;;;26.23;17.40;;;;;;;;;;5087510;28;20076;-63
2022/12/22 16:21:32;;;;;;;29.40;17.00;;;;;;;;;;5089596;28;20155;-63
2022/12/22 16:23:59;;;;;;;25.08;17.52;;;8.10;99.90;;;;;;5068971;28;20048;-63
2022/12/22 16:26:25;;;;;;;27.13;17.65;;;;;;;;;;5086357;28;20558;-63
2022/12/22 16:28:51;;;;;;;27.60;16.83;;;;;;;;;;5086962;28;20044;-62
2022/12/22 16:31:19;;;;;;;31.25;18.88;;;;;;;;;;5064039;28;20063;-63
2022/12/22 16:33:45;;;;;;;29.08;17.33;;;;;;;;;;5057552;28;20054;-63
2022/12/22 16:36:11;;;;;;;26.73;17.33;;;;;;;;;;5095462;28;20040;-64
2022/12/22 16:38:37;;;;;;;31.92;18.77;;;;;;;;;;5090491;28;20040;-62
2022/12/22 16:41:05;;;;;;;29.67;17.45;;;8.30;99.90;;;;;;5078704;28;20035;-63
2022/12/22 16:43:35;;;;;;;26.15;15.77;;;8.00;99.90;;;;;;5084409;28;20516;-63
2022/12/22 16:46:02;;;;;;;26.08;15.05;;;;;;;;;;5068932;28;20039;-61
2022/12/22 16:48:38;;;;;;;27.55;15.50;;;;;;;;;;5077925;28;20093;-63
2022/12/22 16:51:05;;;;;;;25.58;15.68;;;8.00;99.90;;;;;;5083108;28;20050;-64
2022/12/22 16:53:31;;;;;;;25.63;15.40;;;;;;;;;;5082845;28;20083;-62
2022/12/22 16:55:58;;;;;;;32.08;16.27;;;;;;;;;;5085953;28;20044;-63
2022/12/22 16:58:25;;;;;;;30.40;15.63;;;;;;;;;;5084409;28;20051;-61
2022/12/22 17:00:51;;;;;;;27.48;15.63;;;;;;;;;;5085224;28;20778;-63
2022/12/22 17:03:27;;;;;;;28.63;15.68;;;;;;;;;;5100386;28;20088;-62
2022/12/22 17:05:54;;;;;;;27.20;15.68;;;;;;;;;;5052732;28;20068;-59
2022/12/22 17:08:22;;;;;;;35.80;17.25;;;;;;;;;;5086695;28;20047;-61
2022/12/22 17:10:49;;;;;;;31.50;16.15;;;;;;;;;;5081394;28;20047;-61
2022/12/22 17:13:15;;;;;;;30.75;15.80;;;7.90;99.90;;;;;;5101776;28;20116;-61
2022/12/22 17:15:41;;;;;;;30.83;16.63;;;;;;;;;;5084515;28;20385;-60
2022/12/22 17:18:15;;;;;;;33.83;17.60;;;;;;;;;;5095503;28;20044;-62
2022/12/22 17:20:41;;;;;;;33.80;16.15;;;;;;;;;;5086556;28;20040;-61
2022/12/22 17:23:15;;;;;;;36.58;18.73;;;;;;;;;;5089035;28;20048;-61
2022/12/22 17:25:40;;;;;;;39.72;18.85;;;7.80;99.90;;;;;;5092526;28;20447;-59
2022/12/22 17:28:09;;;;;;;34.80;18.20;;;;;;;;;;5078363;28;20040;-59
2022/12/22 17:30:35;;;;;;;38.25;17.63;;;;;;;;;;5080002;28;20527;-62
2022/12/22 17:33:00;;;;;;;38.72;18.90;;;7.70;99.90;;;;;;5101251;28;20493;-59
2022/12/22 17:35:27;;;;;;;40.80;17.85;;;;;;;;;;5097690;28;20451;-61
2022/12/22 17:37:53;;;;;;;38.58;19.02;;;;;;;;;;5100389;28;20508;-59
2022/12/22 17:40:25;;;;;;;37.03;18.60;;;;;;;;;;5082245;28;20444;-60
2022/12/22 17:42:52;;;;;;;40.65;19.08;;;;;;;;;;5102576;28;20483;-63